• Join FlightAware (Why Join?)
  • Login
  • US Flag 
05:15AM EDT


 

Airport Tracker/Info


-or-


 

Live Flight TrackerFlight Track Log ✈ EJA929 ✈ 07-Jul-2013 ✈ KOAK - KSUN

Flight Track Log - Related Links

Times and Time Zones

All times are in EDT time to prevent confusion due to time zone crossing. See the EJA929 flight status page for this flight to view local times or setup timezone preferences in your user account.

Time Position Orientation Groundspeed Altitude Reporting Facility
EDT Latitude Longitude Course Direction KTS MPH feet Rate Location/Type
02:54PM 37.7000 -122.1833 142° Southeast 205 236 2,000  Level Northern Cal TRACON
02:55PM 37.6500 -122.1333 142° Southeast 245 282 6,400 3,840 Climbing Northern Cal TRACON
02:57PM 37.6686 -122.0058 80° East 325 374 13,400 3,480 Climbing Oakland Center
02:58PM 37.7606 -121.9536 24° Northeast 357 411 16,400 2,220 Climbing Oakland Center
02:59PM 37.8550 -121.8975 25° Northeast 367 422 18,000 1,620 Climbing Oakland Center
03:00PM 37.9683 -121.8072 32° Northeast 391 450 19,800 1,560 Climbing Oakland Center
03:01PM 38.0503 -121.7039 45° Northeast 412 474 21,200 1,320 Climbing Oakland Center
03:02PM 38.1344 -121.5989 44° Northeast 423 487 22,600 1,320 Climbing Oakland Center
03:03PM 38.2219 -121.4900 44° Northeast 436 502 24,000 1,380 Climbing Oakland Center
03:04PM 38.3133 -121.3753 45° Northeast 453 521 25,500 1,320 Climbing Oakland Center
03:05PM 38.4039 -121.2603 45° Northeast 462 532 26,800 1,440 Climbing Oakland Center
03:06PM 38.5131 -121.1192 45° Northeast 476 548 28,500 1,500 Climbing Oakland Center
03:07PM 38.6078 -120.9989 45° Northeast 486 559 29,900 1,260 Climbing Oakland Center
03:08PM 38.7044 -120.8739 45° Northeast 492 566 31,200 1,260 Climbing Oakland Center
03:09PM 38.8039 -120.7453 45° Northeast 504 580 32,600 1,320 Climbing Oakland Center
03:10PM 38.9053 -120.6147 45° Northeast 512 589 34,000 1,140 Climbing Oakland Center
03:11PM 39.0308 -120.4517 45° Northeast 530 610 35,000 480 Climbing Oakland Center
03:12PM 39.1397 -120.3086 46° Northeast 548 631 35,000  Level Oakland Center
03:13PM 39.2511 -120.1631 45° Northeast 567 652 35,000 120 Level Oakland Center
03:14PM 39.3622 -120.0211 45° Northeast 580 667 35,300 600 Climbing Oakland Center
03:15PM 39.4719 -119.8756 46° Northeast 566 651 36,300 960 Climbing Oakland Center
03:16PM 39.5789 -119.7306 46° Northeast 557 641 37,300 1,020 Climbing Oakland Center
03:17PM 39.6872 -119.5853 46° Northeast 558 642 38,500 1,440 Climbing Oakland Center
03:18PM 39.8139 -119.4142 46° Northeast 546 628 40,300 1,200 Climbing Oakland Center
03:19PM 39.9178 -119.2725 46° Northeast 540 621 41,000 300 Climbing Oakland Center
03:20PM 40.0267 -119.1250 46° Northeast 556 640 41,000  Level Oakland Center
03:21PM 40.1378 -118.9736 46° Northeast 568 654 41,000  Level Oakland Center
03:22PM 40.2481 -118.8222 46° Northeast 572 658 41,000  Level Oakland Center
03:23PM 40.3594 -118.6683 46° Northeast 577 664 41,000  Level Oakland Center
03:24PM 40.4703 -118.5147 46° Northeast 579 666 41,000  Level Oakland Center
03:25PM 40.5925 -118.3431 47° Northeast 576 663 41,000  Level Oakland Center
03:26PM 40.6981 -118.1950 47° Northeast 577 664 41,000  Level Oakland Center
03:27PM 40.8208 -118.0233 47° Northeast 576 663 41,000  Level Oakland Center
03:28PM 40.9272 -117.8719 47° Northeast 581 669 41,000  Level Oakland Center
03:29PM 41.0328 -117.7217 47° Northeast 582 670 41,000  Level Oakland Center
03:31PM 41.1561 -117.5453 47° Northeast 581 669 41,000  Level Oakland Center
03:32PM 41.3161 -117.3164 47° Northeast 582 670 41,000  Level Salt Lake Center
03:33PM 41.4203 -117.1631 48° Northeast 583 671 41,000  Level Salt Lake Center
03:34PM 41.5436 -116.9842 47° Northeast 584 672 41,000  Level Salt Lake Center
03:35PM 41.6489 -116.8306 47° Northeast 584 672 41,000  Level Salt Lake Center
03:36PM 41.7714 -116.6486 48° Northeast 586 674 41,000  Level Salt Lake Center
03:37PM 41.8753 -116.4903 49° Northeast 583 671 41,000  Level Salt Lake Center
03:38PM 41.9975 -116.3111 47° Northeast 579 666 41,000  Level Salt Lake Center
03:39PM 42.0972 -116.1575 49° Northeast 585 673 41,000 -1,140 Level Salt Lake Center
03:40PM 42.2175 -115.9764 48° Northeast 580 667 38,700 -2,400 Descending Salt Lake Center
03:41PM 42.3178 -115.8258 48° Northeast 566 651 36,100 -2,820 Descending Salt Lake Center
03:42PM 42.4347 -115.6486 48° Northeast 567 652 32,900 -2,760 Descending Salt Lake Center
03:43PM 42.5344 -115.4947 49° Northeast 568 654 30,400 -2,460 Descending Salt Lake Center
03:44PM 42.6472 -115.3222 48° Northeast 549 632 27,900 -2,520 Descending Salt Lake Center
03:45PM 42.7400 -115.1764 49° Northeast 538 619 25,300 -3,000 Descending Salt Lake Center
03:46PM 42.8419 -115.0186 49° Northeast 501 577 21,700 -3,540 Descending Salt Lake Center
03:48PM 42.9322 -114.8789 49° Northeast 487 560 18,100 -3,540 Descending Salt Lake Center
03:49PM 43.0197 -114.7411 49° Northeast 463 533 14,400 -2,940 Descending Salt Lake Center
03:50PM 43.1019 -114.6111 49° Northeast 435 501 12,100 -1,740 Descending Salt Lake Center
03:51PM 43.1789 -114.4914 49° Northeast 409 471 10,900 -600 Descending Salt Lake Center
03:52PM 43.2403 -114.3906 50° Northeast 366 421 10,900 -300 Level Salt Lake Center
03:53PM 43.2903 -114.3108 49° Northeast 326 375 10,400 -540 Descending Salt Lake Center
03:55PM 43.5000 -114.2833 North  Level FlightAware Approximate
04:02PM 43.5038 -114.2956 North  Level Estimated
04:03PM 43.5038 -114.2956 North  Level Estimated